createdAt,value
2023-01-07T00:01:09.610Z,10.71
2023-01-07T00:03:37.130Z,10.81
2023-01-07T00:06:09.471Z,10.77
2023-01-07T00:08:38.134Z,10.70
2023-01-07T00:11:06.502Z,10.83
2023-01-07T00:13:33.255Z,10.84
2023-01-07T00:16:01.450Z,10.76
2023-01-07T00:18:28.074Z,10.98
2023-01-07T00:21:02.713Z,11.03
2023-01-07T00:23:30.751Z,11.21
2023-01-07T00:26:06.081Z,11.14
2023-01-07T00:28:37.342Z,11.03
2023-01-07T00:31:16.521Z,10.94
2023-01-07T00:33:51.783Z,10.93
2023-01-07T00:36:19.533Z,11.03
2023-01-07T00:38:46.534Z,11.08
2023-01-07T00:41:12.938Z,11.06
2023-01-07T00:43:39.502Z,11.17
2023-01-07T00:46:06.067Z,10.96
2023-01-07T00:48:32.517Z,11.16
2023-01-07T00:50:58.914Z,11.26
2023-01-07T00:53:25.287Z,11.49
2023-01-07T00:55:52.048Z,11.44
2023-01-07T00:58:24.298Z,11.64
2023-01-07T01:00:55.066Z,11.57
2023-01-07T01:03:21.743Z,11.60
2023-01-07T01:05:48.251Z,11.76
2023-01-07T01:08:14.679Z,11.44
2023-01-07T01:10:41.105Z,11.59
2023-01-07T01:13:07.571Z,11.61
2023-01-07T01:15:34.016Z,11.43
2023-01-07T01:18:00.464Z,11.72
2023-01-07T01:20:26.905Z,11.89
2023-01-07T01:22:53.354Z,11.80
2023-01-07T01:25:19.756Z,11.89
2023-01-07T01:27:46.140Z,11.80
2023-01-07T01:30:12.784Z,12.09
2023-01-07T01:32:39.202Z,11.73
2023-01-07T01:35:06.174Z,11.66
2023-01-07T01:37:32.588Z,12.39
2023-01-07T01:39:59.034Z,12.20
2023-01-07T01:42:26.083Z,12.32
2023-01-07T01:44:53.782Z,12.12
2023-01-07T01:47:35.298Z,12.29
2023-01-07T01:50:26.797Z,12.15
2023-01-07T01:52:59.803Z,12.41
2023-01-07T01:55:33.194Z,12.45
2023-01-07T01:58:04.280Z,12.40
2023-01-07T02:00:31.509Z,12.39
2023-01-07T02:02:59.526Z,12.71
2023-01-07T02:05:31.575Z,12.55
2023-01-07T02:07:57.997Z,12.39
2023-01-07T02:10:25.348Z,12.62
2023-01-07T02:13:17.698Z,12.61
2023-01-07T02:15:56.360Z,12.66
2023-01-07T02:18:44.664Z,12.46
2023-01-07T02:21:27.255Z,12.23
2023-01-07T02:24:11.281Z,12.35
2023-01-07T02:26:52.689Z,12.57
2023-01-07T02:29:41.182Z,12.70
2023-01-07T02:32:28.077Z,12.73
2023-01-07T02:35:19.046Z,12.63
2023-01-07T02:38:04.329Z,12.81
2023-01-07T02:40:37.038Z,12.66
2023-01-07T02:43:27.267Z,12.64
2023-01-07T02:46:16.024Z,12.69
2023-01-07T02:48:44.991Z,12.68
2023-01-07T02:51:11.648Z,12.60
2023-01-07T02:53:42.064Z,12.41
2023-01-07T02:56:51.764Z,12.44
2023-01-07T02:59:27.267Z,11.98
2023-01-07T03:02:18.386Z,11.72
2023-01-07T03:05:11.964Z,11.76
2023-01-07T03:07:41.063Z,11.55
2023-01-07T03:10:25.428Z,11.81
2023-01-07T03:12:58.388Z,10.74
2023-01-07T03:15:39.792Z,11.51
2023-01-07T03:18:18.595Z,11.75
2023-01-07T03:20:48.580Z,11.82
2023-01-07T03:23:20.135Z,12.05
2023-01-07T03:25:50.294Z,11.77
2023-01-07T03:28:21.243Z,12.08
2023-01-07T03:30:49.178Z,11.76
2023-01-07T03:33:23.203Z,11.68
2023-01-07T03:35:52.048Z,12.00
2023-01-07T03:38:21.767Z,12.37
2023-01-07T03:40:50.738Z,12.01
2023-01-07T03:43:22.799Z,12.07
2023-01-07T03:45:52.292Z,12.54
2023-01-07T03:48:18.818Z,12.55
2023-01-07T03:50:45.292Z,12.39
2023-01-07T03:53:11.729Z,12.46
2023-01-07T03:55:38.127Z,12.71
2023-01-07T03:58:04.543Z,12.74
2023-01-07T04:00:30.983Z,12.45
2023-01-07T04:02:57.451Z,12.80
2023-01-07T04:05:23.889Z,12.74
2023-01-07T04:07:50.469Z,12.63
2023-01-07T04:10:16.861Z,12.71
2023-01-07T04:12:43.275Z,12.60
2023-01-07T04:15:10.077Z,12.62
2023-01-07T04:17:36.490Z,12.57
2023-01-07T04:20:03.647Z,11.82
2023-01-07T04:22:30.268Z,12.52
2023-01-07T04:24:57.920Z,12.56
2023-01-07T04:27:24.341Z,12.09
2023-01-07T04:29:50.796Z,12.21
2023-01-07T04:32:17.193Z,12.35
2023-01-07T04:34:43.612Z,12.34
2023-01-07T04:37:10.028Z,12.38
2023-01-07T04:39:36.470Z,12.24
2023-01-07T04:42:02.864Z,12.08
2023-01-07T04:44:29.343Z,11.86
2023-01-07T04:46:55.747Z,11.74
2023-01-07T04:49:22.167Z,11.98
2023-01-07T04:51:48.578Z,12.01
2023-01-07T04:54:15.172Z,11.97
2023-01-07T04:56:41.585Z,12.06
2023-01-07T04:59:08.017Z,12.15
2023-01-07T05:01:34.477Z,12.19
2023-01-07T05:04:01.252Z,12.16
2023-01-07T05:06:27.755Z,11.99
2023-01-07T05:08:54.275Z,11.83
2023-01-07T05:11:21.809Z,12.05
2023-01-07T05:13:51.250Z,12.18
2023-01-07T05:16:18.046Z,12.23
2023-01-07T05:18:45.059Z,12.23
2023-01-07T05:21:12.292Z,12.24
2023-01-07T05:23:38.820Z,12.25
2023-01-07T05:26:05.862Z,12.23
2023-01-07T05:28:32.296Z,12.27
2023-01-07T05:30:58.767Z,12.26
2023-01-07T05:33:25.261Z,12.11
2023-01-07T05:35:51.772Z,12.20
2023-01-07T05:38:18.192Z,12.39
2023-01-07T05:40:49.743Z,12.25
2023-01-07T05:43:16.861Z,12.06
2023-01-07T05:45:45.623Z,11.93
2023-01-07T05:48:13.267Z,12.06
2023-01-07T05:50:39.722Z,12.03
2023-01-07T05:53:06.238Z,12.34
2023-01-07T05:55:32.878Z,12.48
2023-01-07T05:57:59.286Z,12.19
2023-01-07T06:00:25.690Z,12.54
2023-01-07T06:02:52.073Z,12.47
2023-01-07T06:05:18.523Z,12.26
2023-01-07T06:07:44.921Z,12.37
2023-01-07T06:10:11.342Z,12.31
2023-01-07T06:12:37.765Z,12.18
2023-01-07T06:15:07.070Z,12.35
2023-01-07T06:17:34.192Z,12.41
2023-01-07T06:20:00.941Z,12.02
2023-01-07T06:22:27.631Z,12.31
2023-01-07T06:24:54.153Z,12.38
2023-01-07T06:27:20.616Z,12.07
2023-01-07T06:29:47.052Z,12.06
2023-01-07T06:32:13.544Z,12.05
2023-01-07T06:34:39.940Z,12.22
2023-01-07T06:37:06.417Z,12.19
2023-01-07T06:39:32.822Z,12.31
2023-01-07T06:41:59.237Z,12.15
2023-01-07T06:44:25.636Z,12.35
2023-01-07T06:46:52.244Z,12.00
2023-01-07T06:49:18.692Z,12.08
2023-01-07T06:51:45.146Z,12.14
2023-01-07T06:54:11.615Z,12.00
2023-01-07T06:56:38.031Z,12.26
2023-01-07T06:59:04.477Z,12.16
2023-01-07T07:01:31.010Z,12.17
2023-01-07T07:03:57.462Z,11.99
2023-01-07T07:06:23.876Z,12.31
2023-01-07T07:08:50.265Z,11.85
2023-01-07T07:11:16.727Z,12.06
2023-01-07T07:13:43.141Z,12.36
2023-01-07T07:16:09.642Z,12.05
2023-01-07T07:18:36.146Z,12.19
2023-01-07T07:21:02.636Z,12.18
2023-01-07T07:23:29.077Z,12.33
2023-01-07T07:25:55.498Z,12.48
2023-01-07T07:28:21.974Z,12.37
2023-01-07T07:30:48.555Z,12.40
2023-01-07T07:33:18.906Z,12.43
2023-01-07T07:35:46.623Z,12.18
2023-01-07T07:38:13.105Z,12.24
2023-01-07T07:40:39.550Z,12.61
2023-01-07T07:43:11.821Z,12.51
2023-01-07T07:45:39.945Z,12.31
2023-01-07T07:48:07.576Z,12.41
2023-01-07T07:50:34.899Z,12.42
2023-01-07T07:53:01.507Z,12.50
2023-01-07T07:55:28.096Z,12.49
2023-01-07T07:57:55.621Z,12.56
2023-01-07T08:00:23.190Z,12.59
2023-01-07T08:02:50.174Z,12.67
2023-01-07T08:05:16.634Z,12.65
2023-01-07T08:07:43.044Z,12.52
2023-01-07T08:10:09.668Z,12.64
2023-01-07T08:12:39.888Z,12.66
2023-01-07T08:15:08.115Z,12.58
2023-01-07T08:17:36.217Z,12.60
2023-01-07T08:20:07.452Z,12.90
2023-01-07T08:22:34.434Z,13.23
2023-01-07T08:25:01.701Z,13.43
2023-01-07T08:27:29.100Z,13.45
2023-01-07T08:29:56.182Z,13.62
2023-01-07T08:32:22.728Z,13.50
2023-01-07T08:34:49.155Z,13.33
2023-01-07T08:37:15.580Z,13.51
2023-01-07T08:42:09.695Z,14.09
2023-01-07T08:44:36.140Z,14.23
2023-01-07T08:47:02.701Z,14.10
2023-01-07T08:49:29.201Z,14.15
2023-01-07T08:51:55.607Z,14.25
2023-01-07T08:54:22.039Z,14.18
2023-01-07T08:56:48.490Z,13.78
2023-01-07T08:59:15.152Z,13.88
2023-01-07T09:01:41.727Z,13.94
2023-01-07T09:04:08.278Z,13.87
2023-01-07T09:06:34.660Z,14.00
2023-01-07T09:09:01.119Z,14.19
2023-01-07T09:11:27.554Z,14.23
2023-01-07T09:13:53.975Z,14.51
2023-01-07T09:16:20.430Z,14.77
2023-01-07T09:18:46.984Z,14.12
2023-01-07T09:21:13.451Z,14.31
2023-01-07T09:23:40.398Z,14.63
2023-01-07T09:26:07.271Z,14.84
2023-01-07T09:28:33.701Z,14.90
2023-01-07T09:31:00.855Z,14.53
2023-01-07T09:33:27.350Z,14.76
2023-01-07T09:35:53.868Z,15.07
2023-01-07T09:38:20.297Z,15.84
2023-01-07T09:40:47.328Z,15.96
2023-01-07T09:43:21.355Z,16.16
2023-01-07T09:45:52.426Z,16.11
2023-01-07T09:48:29.564Z,15.89
2023-01-07T09:51:03.514Z,15.26
2023-01-07T09:53:36.813Z,15.31
2023-01-07T09:56:11.583Z,15.42
2023-01-07T09:58:41.771Z,15.52
2023-01-07T10:01:23.093Z,15.69
2023-01-07T10:04:31.515Z,15.65
2023-01-07T10:07:31.944Z,15.34
2023-01-07T10:10:38.712Z,15.06
2023-01-07T10:13:16.950Z,14.79
2023-01-07T10:15:58.250Z,14.61
2023-01-07T10:18:40.755Z,14.56
2023-01-07T10:21:22.222Z,14.39
2023-01-07T10:24:20.440Z,14.87
2023-01-07T10:26:51.275Z,14.94
2023-01-07T10:29:27.355Z,14.39
2023-01-07T10:31:56.070Z,14.43
2023-01-07T10:34:34.218Z,14.41
2023-01-07T10:37:12.967Z,14.69
2023-01-07T10:39:47.468Z,14.15
2023-01-07T10:42:30.941Z,14.76
2023-01-07T10:45:25.283Z,14.89
2023-01-07T10:48:27.137Z,14.67
2023-01-07T10:51:38.513Z,14.73
2023-01-07T10:54:19.881Z,14.75
2023-01-07T10:56:58.144Z,14.51
2023-01-07T10:59:25.548Z,14.75
2023-01-07T11:01:57.523Z,14.99
2023-01-07T11:04:24.701Z,15.10
2023-01-07T11:06:58.522Z,14.87
2023-01-07T11:09:29.714Z,15.00
2023-01-07T11:12:01.030Z,14.64
2023-01-07T11:14:34.145Z,14.66
2023-01-07T11:17:26.231Z,14.81
2023-01-07T11:19:52.661Z,14.50
2023-01-07T11:22:28.030Z,15.20
2023-01-07T11:24:55.567Z,14.98
2023-01-07T11:27:25.267Z,14.69
2023-01-07T11:30:10.814Z,14.43
2023-01-07T11:32:40.451Z,15.09
2023-01-07T11:35:22.595Z,14.43
2023-01-07T11:37:49.830Z,14.90
2023-01-07T11:40:24.420Z,14.60
2023-01-07T11:43:04.437Z,13.99
2023-01-07T11:45:47.623Z,14.35
2023-01-07T11:48:38.506Z,14.72
2023-01-07T11:51:10.103Z,14.77
2023-01-07T11:53:48.749Z,14.37
2023-01-07T11:56:21.239Z,14.78
2023-01-07T11:59:15.284Z,14.55
2023-01-07T12:02:02.034Z,14.72
2023-01-07T12:04:30.482Z,14.84
2023-01-07T12:07:01.294Z,14.80
2023-01-07T12:09:27.711Z,14.89
2023-01-07T12:11:57.630Z,15.05
2023-01-07T12:14:32.746Z,15.10
2023-01-07T12:17:16.015Z,15.33
2023-01-07T12:19:58.840Z,15.18
2023-01-07T12:22:43.769Z,14.98
2023-01-07T12:25:13.240Z,15.35
2023-01-07T12:28:13.150Z,14.26
2023-01-07T12:30:58.438Z,14.52
2023-01-07T12:33:43.015Z,14.13
2023-01-07T12:36:29.543Z,14.80
2023-01-07T12:39:00.909Z,15.08
2023-01-07T12:41:32.301Z,14.82
2023-01-07T12:44:02.693Z,14.46
2023-01-07T12:47:31.211Z,14.66
2023-01-07T12:49:53.099Z,14.80
2023-01-07T12:52:24.353Z,14.65
2023-01-07T12:55:03.738Z,14.95
2023-01-07T12:57:41.529Z,14.91
2023-01-07T13:00:19.856Z,15.02
2023-01-07T13:02:57.981Z,14.96
2023-01-07T13:05:31.373Z,14.82
2023-01-07T13:08:36.692Z,14.79
2023-01-07T13:11:44.627Z,14.29
2023-01-07T13:14:21.921Z,13.81
2023-01-07T13:16:48.486Z,14.44
2023-01-07T13:19:14.941Z,14.21
2023-01-07T13:21:45.431Z,14.33
2023-01-07T13:24:56.346Z,14.26
2023-01-07T13:27:41.152Z,13.81
2023-01-07T13:30:27.147Z,14.29
2023-01-07T13:33:13.680Z,13.89
2023-01-07T13:36:06.792Z,13.89
2023-01-07T13:38:42.337Z,13.91
2023-01-07T13:41:36.393Z,14.18
2023-01-07T13:44:27.791Z,14.67
2023-01-07T13:46:55.039Z,13.99
2023-01-07T13:49:26.795Z,14.07
2023-01-07T13:51:54.011Z,14.19
2023-01-07T13:54:53.517Z,13.99
2023-01-07T13:57:26.144Z,14.06
2023-01-07T13:59:57.039Z,14.21
2023-01-07T14:02:26.533Z,13.55
2023-01-07T14:05:23.490Z,14.00
2023-01-07T14:08:04.028Z,14.08
2023-01-07T14:10:32.467Z,13.99
2023-01-07T14:13:14.188Z,13.84
2023-01-07T14:16:05.969Z,14.14
2023-01-07T14:19:06.141Z,13.77
2023-01-07T14:21:52.570Z,13.98
2023-01-07T14:24:32.650Z,13.84
2023-01-07T14:27:39.255Z,13.85
2023-01-07T14:30:43.518Z,13.61
2023-01-07T14:33:17.871Z,13.40
2023-01-07T14:35:54.800Z,13.68
2023-01-07T14:38:29.992Z,13.48
2023-01-07T14:41:09.361Z,13.28
2023-01-07T14:43:51.636Z,13.73
2023-01-07T14:46:21.186Z,13.67
2023-01-07T14:49:03.384Z,13.64
2023-01-07T14:51:44.941Z,13.44
2023-01-07T14:54:32.675Z,13.60
2023-01-07T14:57:29.638Z,13.73
2023-01-07T15:00:05.134Z,13.84
2023-01-07T15:02:43.765Z,13.91
2023-01-07T15:05:39.828Z,13.44
2023-01-07T15:08:28.109Z,13.57
2023-01-07T15:11:16.981Z,13.46
2023-01-07T15:14:15.594Z,13.77
2023-01-07T15:16:45.789Z,13.85
2023-01-07T15:19:12.750Z,13.44
2023-01-07T15:21:45.076Z,13.76
2023-01-07T15:24:20.656Z,13.42
2023-01-07T15:26:57.357Z,13.59
2023-01-07T15:29:50.543Z,13.53
2023-01-07T15:32:32.206Z,13.72
2023-01-07T15:34:58.911Z,13.67
2023-01-07T15:37:25.553Z,13.80
2023-01-07T15:39:57.280Z,13.90
2023-01-07T15:42:26.775Z,13.60
2023-01-07T15:44:58.103Z,13.52
2023-01-07T15:47:43.719Z,13.49
2023-01-07T15:50:22.128Z,13.31
2023-01-07T15:52:56.155Z,13.15
2023-01-07T15:55:26.258Z,12.99
2023-01-07T15:57:59.764Z,13.28
2023-01-07T16:00:26.387Z,13.62
2023-01-07T16:02:53.263Z,13.13
2023-01-07T16:05:20.059Z,13.23
2023-01-07T16:07:52.729Z,13.15
2023-01-07T16:10:29.403Z,13.20
2023-01-07T16:12:58.268Z,13.09
2023-01-07T16:15:30.567Z,12.78
2023-01-07T16:17:59.963Z,12.81
2023-01-07T16:20:30.491Z,12.82
2023-01-07T16:23:17.827Z,12.94
2023-01-07T16:25:47.325Z,13.31
2023-01-07T16:28:31.226Z,12.95
2023-01-07T16:30:58.242Z,13.10
2023-01-07T16:33:27.135Z,12.80
2023-01-07T16:35:57.733Z,12.64
2023-01-07T16:38:25.318Z,12.64
2023-01-07T16:40:52.554Z,13.00
2023-01-07T16:43:42.230Z,13.21
2023-01-07T16:46:28.585Z,12.62
2023-01-07T16:49:28.990Z,12.88
2023-01-07T16:52:11.721Z,12.62
2023-01-07T16:54:40.249Z,12.46
2023-01-07T16:57:12.725Z,12.37
2023-01-07T16:59:53.837Z,12.46
2023-01-07T17:02:42.455Z,12.59
2023-01-07T17:05:12.400Z,12.64
2023-01-07T17:07:39.416Z,12.24
2023-01-07T17:10:06.480Z,12.66
2023-01-07T17:12:40.458Z,12.63
2023-01-07T17:15:31.245Z,12.66
2023-01-07T17:18:13.063Z,12.86
2023-01-07T17:20:52.769Z,12.31
2023-01-07T17:23:25.400Z,12.31
2023-01-07T17:26:01.026Z,12.36
2023-01-07T17:28:31.451Z,12.22
2023-01-07T17:30:58.516Z,12.37
2023-01-07T17:33:25.335Z,12.59
2023-01-07T17:35:54.390Z,12.09
2023-01-07T17:38:20.942Z,12.26
2023-01-07T17:40:48.059Z,12.52
2023-01-07T17:43:34.636Z,12.50
2023-01-07T17:46:14.637Z,12.43
2023-01-07T17:48:41.093Z,12.41
2023-01-07T17:51:09.854Z,12.22
2023-01-07T17:53:42.409Z,12.50
2023-01-07T17:56:09.205Z,12.84
2023-01-07T17:58:37.510Z,12.51
2023-01-07T18:01:12.276Z,12.27
2023-01-07T18:03:38.948Z,12.32
2023-01-07T18:06:16.433Z,12.24
2023-01-07T18:08:43.057Z,11.98
2023-01-07T18:11:32.042Z,11.97
2023-01-07T18:13:58.581Z,12.21
2023-01-07T18:16:25.389Z,12.36
2023-01-07T18:18:51.860Z,11.99
2023-01-07T18:21:18.485Z,11.82
2023-01-07T18:23:45.986Z,11.91
2023-01-07T18:26:14.116Z,11.77
2023-01-07T18:28:41.738Z,11.83
2023-01-07T18:31:08.429Z,12.11
2023-01-07T18:33:35.422Z,12.37
2023-01-07T18:36:02.117Z,11.93
2023-01-07T18:38:28.568Z,11.77
2023-01-07T18:40:55.559Z,12.02
2023-01-07T18:43:22.352Z,12.22
2023-01-07T18:45:49.090Z,11.82
2023-01-07T18:48:19.169Z,11.98
2023-01-07T18:50:48.286Z,12.11
2023-01-07T18:53:16.241Z,12.12
2023-01-07T18:55:43.789Z,11.76
2023-01-07T18:58:15.192Z,11.97
2023-01-07T19:00:42.047Z,12.22
2023-01-07T19:03:09.930Z,11.63
2023-01-07T19:05:39.193Z,12.16
2023-01-07T19:08:05.731Z,12.18
2023-01-07T19:10:32.326Z,12.34
2023-01-07T19:12:58.764Z,12.24
2023-01-07T19:15:25.168Z,12.26
2023-01-07T19:17:51.645Z,12.45
2023-01-07T19:20:18.257Z,12.16
2023-01-07T19:22:44.680Z,12.64
2023-01-07T19:25:11.146Z,12.72
2023-01-07T19:27:37.882Z,12.64
2023-01-07T19:30:05.660Z,12.19
2023-01-07T19:32:32.093Z,12.33
2023-01-07T19:34:58.635Z,12.37
2023-01-07T19:37:25.177Z,12.36
2023-01-07T19:39:51.683Z,12.39
2023-01-07T19:42:18.162Z,12.65
2023-01-07T19:44:44.650Z,12.54
2023-01-07T19:47:11.191Z,12.54
2023-01-07T19:49:37.675Z,12.23
2023-01-07T19:52:04.182Z,12.34
2023-01-07T19:54:30.774Z,12.61
2023-01-07T19:56:57.191Z,12.58
2023-01-07T19:59:23.636Z,12.42
2023-01-07T20:01:50.274Z,12.56
2023-01-07T20:04:16.850Z,12.58
2023-01-07T20:06:43.413Z,12.32
2023-01-07T20:09:12.699Z,11.89
2023-01-07T20:11:40.471Z,12.26
2023-01-07T20:14:07.733Z,12.10
2023-01-07T20:16:36.715Z,12.17
2023-01-07T20:19:03.638Z,12.67
2023-01-07T20:21:30.138Z,12.20
2023-01-07T20:23:56.626Z,12.70
2023-01-07T20:26:26.727Z,12.41
2023-01-07T20:28:53.693Z,12.38
2023-01-07T20:31:22.079Z,12.25
2023-01-07T20:33:50.379Z,11.77
2023-01-07T20:36:19.252Z,12.42
2023-01-07T20:38:46.737Z,12.82
2023-01-07T20:41:18.731Z,12.69
2023-01-07T20:43:53.889Z,12.42
2023-01-07T20:46:20.977Z,12.64
2023-01-07T20:48:47.750Z,12.47
2023-01-07T20:51:15.665Z,12.68
2023-01-07T20:53:42.463Z,12.70
2023-01-07T20:56:09.581Z,12.80
2023-01-07T20:58:37.662Z,12.61
2023-01-07T21:01:14.284Z,12.52
2023-01-07T21:03:41.341Z,12.63
2023-01-07T21:06:10.367Z,12.26
2023-01-07T21:08:37.421Z,12.79
2023-01-07T21:11:07.270Z,12.59
2023-01-07T21:13:33.873Z,12.02
2023-01-07T21:16:04.522Z,12.91
2023-01-07T21:19:09.650Z,12.91
2023-01-07T21:21:36.166Z,12.89
2023-01-07T21:24:02.625Z,12.92
2023-01-07T21:26:29.115Z,12.92
2023-01-07T21:28:56.137Z,12.87
2023-01-07T21:31:23.391Z,12.57
2023-01-07T21:33:53.500Z,12.89
2023-01-07T21:36:19.996Z,12.74
2023-01-07T21:38:51.196Z,12.67
2023-01-07T21:41:17.647Z,12.60
2023-01-07T21:43:44.676Z,12.82
2023-01-07T21:46:11.512Z,12.96
2023-01-07T21:48:40.677Z,12.81
2023-01-07T21:51:12.525Z,12.73
2023-01-07T21:53:38.940Z,12.63
2023-01-07T21:56:11.651Z,12.84
2023-01-07T21:58:38.500Z,12.94
2023-01-07T22:01:05.991Z,12.78
2023-01-07T22:03:33.049Z,12.44
2023-01-07T22:06:02.014Z,12.56
2023-01-07T22:08:28.571Z,12.56
2023-01-07T22:10:55.039Z,12.07
2023-01-07T22:13:21.725Z,12.30
2023-01-07T22:15:48.191Z,12.30
2023-01-07T22:18:14.592Z,12.56
2023-01-07T22:20:41.322Z,12.70
2023-01-07T22:23:08.228Z,12.73
2023-01-07T22:25:34.708Z,12.64
2023-01-07T22:28:04.033Z,12.57
2023-01-07T22:30:34.217Z,12.59
2023-01-07T22:33:00.740Z,12.32
2023-01-07T22:35:28.517Z,12.13
2023-01-07T22:37:55.858Z,12.54
2023-01-07T22:40:22.439Z,12.36
2023-01-07T22:42:56.990Z,12.45
2023-01-07T22:45:34.546Z,12.54
2023-01-07T22:48:02.672Z,12.41
2023-01-07T22:50:29.286Z,12.09
2023-01-07T22:52:55.724Z,11.79
2023-01-07T22:55:22.252Z,11.83
2023-01-07T22:57:48.983Z,11.61
2023-01-07T23:00:36.834Z,11.66
2023-01-07T23:03:03.597Z,12.06
2023-01-07T23:05:30.157Z,12.40
2023-01-07T23:07:59.319Z,12.46
2023-01-07T23:10:25.757Z,12.52
2023-01-07T23:12:52.192Z,11.88
2023-01-07T23:15:18.604Z,12.20
2023-01-07T23:17:45.070Z,12.50
2023-01-07T23:20:11.563Z,12.95
2023-01-07T23:22:37.984Z,12.61
2023-01-07T23:25:04.911Z,12.58
2023-01-07T23:27:31.339Z,12.95
2023-01-07T23:29:58.569Z,13.16
2023-01-07T23:32:25.389Z,12.96
2023-01-07T23:34:51.872Z,12.83
2023-01-07T23:37:18.311Z,12.46
2023-01-07T23:39:44.728Z,12.33
2023-01-07T23:42:11.146Z,12.90
2023-01-07T23:44:37.574Z,13.08
2023-01-07T23:47:04.551Z,12.50
2023-01-07T23:49:31.927Z,12.65
2023-01-07T23:51:58.721Z,13.06
2023-01-07T23:54:25.159Z,12.97
2023-01-07T23:56:51.743Z,12.89
2023-01-07T23:59:18.451Z,13.09
